Flight Track Log - Related Links

Times and Time Zones

All times are in EDT time to prevent confusion due to time zone crossing. See the DAL5916 flight status page for this flight to view local times or setup timezone preferences in your user account.

Time Position Orientation Groundspeed Altitude Reporting Facility
EDT Latitude Longitude Course Direction KTS MPH feet Rate Location/Type
Tue 02:26:27 PM 38.8814 -77.0717 74° East 174 200 1,900  Level Washington Center
Tue 02:27:25 PM 38.9328 -77.1261 321° Northwest 252 290 4,500 3,024 Climbing Washington Center
Tue 02:28:34 PM 39.0000 -77.1667 335° Northwest 277 319 8,300 2,901 Climbing Potomac TRACON
Tue 02:30:00 PM 38.9839 -76.5141 74° East  Level FlightAware Approximate
Tue 02:30:27 PM 39.0200 -76.9808 82° East 299 344 13,300  Level Washington Center
Tue 02:31:00 PM 39.0080 -76.4058 74° East  Level FlightAware Approximate
Tue 02:31:25 PM 39.0214 -76.8608 89° East 314 361 15,600  Level Washington Center
Tue 02:32:26 PM 39.0225 -76.7325 89° East 337 388 17,900 2,066 Climbing Washington Center
Tue 02:33:27 PM 39.0239 -76.5989 89° East 357 411 19,800 1,537 Climbing Washington Center
Tue 02:34:27 PM 39.0228 -76.4600 91° East 371 427 21,000 610 Climbing Washington Center
Tue 02:35:25 PM 39.0278 -76.3211 87° East 382 440 21,000  Level Washington Center
Tue 02:36:26 PM 39.0350 -76.1794 86° East 387 445 21,000  Level Washington Center
Tue 02:37:27 PM 39.0481 -76.0406 83° East 387 445 21,000  Level Washington Center
Tue 02:38:27 PM 39.0506 -75.9017 89° East 387 445 21,000  Level Washington Center
Tue 02:39:25 PM 39.0633 -75.7653 83° East 387 445 21,000  Level Washington Center
Tue 02:40:25 PM 39.1258 -75.6558 54° Northeast 367 422 21,000  Level Washington Center
Tue 02:41:26 PM 39.2092 -75.5486 45° Northeast 394 453 21,000  Level Washington Center
Tue 02:42:27 PM 39.3031 -75.4547 38° Northeast 399 459 21,000  Level Washington Center
Tue 02:43:27 PM 39.4008 -75.3686 34° Northeast 411 473 21,000  Level Washington Center
Tue 02:44:25 PM 39.4964 -75.2822 35° Northeast 421 484 21,000  Level Washington Center
Tue 02:45:25 PM 39.5942 -75.1931 35° Northeast 421 484 21,000 -298 Level Washington Center
Tue 02:46:26 PM 39.6875 -75.1033 36° Northeast 427 491 20,400 -1,475 Descending Washington Center
Tue 02:47:27 PM 39.7850 -75.0217 33° Northeast 418 481 18,000 -2,182 Descending Washington Center
Tue 02:48:27 PM 39.8783 -74.9400 34° Northeast 413 475 16,000 -2,093 Descending Washington Center
Tue 02:49:36 PM 39.9667 -74.8333 43° Northeast 382 440 13,500 -2,047 Descending New York TRACON
Tue 02:50:36 PM 40.0500 -74.7333 43° Northeast 370 426 11,600 -1,700 Descending New York TRACON
Tue 02:51:36 PM 40.1167 -74.6333 49° Northeast 364 419 10,100 -750 Descending New York TRACON
Tue 02:52:36 PM 40.1833 -74.5333 49° Northeast 360 414 10,100  Level New York TRACON
Tue 02:53:36 PM 40.2500 -74.4333 49° Northeast 361 415 10,100 -192 Level New York TRACON
Tue 02:54:41 PM 40.3167 -74.3500 44° Northeast 299 344 9,700 -1,104 Descending New York TRACON
Tue 02:55:41 PM 40.3667 -74.2833 45° Northeast 279 321 7,800 -1,357 Descending New York TRACON
Tue 02:56:36 PM 40.4167 -74.2167 45° Northeast 260 299 7,100 -417 Descending New York TRACON
Tue 02:57:36 PM 40.4667 -74.1500 45° Northeast 263 303 7,000 -908 Descending New York TRACON
Tue 02:58:35 PM 40.5333 -74.1000 30° Northeast 264 304 5,300 -1,462 Descending New York TRACON
Tue 02:59:35 PM 40.6000 -74.0667 21° North 268 308 4,100 -595 Descending New York TRACON
Tue 03:00:36 PM 40.6833 -74.0500 North 269 310 4,100  Level New York TRACON
Tue 03:01:36 PM 40.7500 -74.0167 21° North 265 305 4,100  Level New York TRACON
Tue 03:02:36 PM 40.8167 -73.9833 21° North 262 302 4,100  Level New York TRACON
Tue 03:03:36 PM 40.8667 -73.9333 37° Northeast 267 307 4,100 -150 Level New York TRACON
Tue 03:04:36 PM 40.9333 -73.8833 30° Northeast 234 269 3,800 -750 Descending New York TRACON
Tue 03:05:36 PM 40.9000 -73.8167 123° Southeast 207 238 2,600 -1,200 Descending New York TRACON

Login

Don't have an account? Register now (free) for customized features, flight alerts, and more!